createdAt,value
2023-04-20T02:18:33.628Z,4.70
2023-04-20T02:21:01.588Z,5.72
2023-04-20T02:23:28.333Z,8.15
2023-04-20T02:25:55.650Z,3.60
2023-04-20T02:28:22.736Z,4.68
2023-04-20T02:30:49.920Z,4.32
2023-04-20T02:33:17.462Z,3.78
2023-04-20T02:35:44.820Z,5.90
2023-04-20T02:38:11.702Z,4.18
2023-04-20T02:40:38.445Z,5.60
2023-04-20T02:43:05.244Z,4.75
2023-04-20T02:45:33.066Z,5.88
2023-04-20T02:47:59.873Z,6.13
2023-04-20T02:50:26.686Z,4.45
2023-04-20T02:52:53.445Z,5.05
2023-04-20T02:55:20.283Z,7.10
2023-04-20T03:23:30.758Z,3.38
2023-04-20T03:25:57.667Z,4.93
2023-04-20T03:28:24.510Z,4.10
2023-04-20T03:30:51.307Z,4.85
2023-04-20T03:33:18.177Z,5.88
2023-04-20T03:35:45.064Z,4.82
2023-04-20T03:38:12.035Z,3.72
2023-04-20T03:40:39.043Z,4.72
2023-04-20T03:43:05.943Z,6.88
2023-04-20T03:45:36.179Z,6.70
2023-04-20T03:48:08.995Z,3.83
2023-04-20T03:50:41.792Z,4.43
2023-04-20T03:53:08.751Z,5.35
2023-04-20T03:55:35.754Z,4.32
2023-04-20T03:58:02.554Z,5.40
2023-04-20T04:00:29.388Z,4.63
2023-04-20T04:02:56.530Z,4.18
2023-04-20T04:05:24.483Z,3.88
2023-04-20T04:07:51.717Z,4.07
2023-04-20T04:10:19.179Z,10.73
2023-04-20T04:12:46.257Z,4.28
2023-04-20T04:15:13.483Z,4.65
2023-04-20T04:17:40.525Z,6.03
2023-04-20T04:20:08.871Z,7.53
2023-04-20T04:22:35.711Z,7.10
2023-04-20T04:25:02.570Z,6.82
2023-04-20T04:27:35.833Z,10.27
2023-04-20T04:30:04.875Z,5.47
2023-04-20T04:32:31.628Z,4.78
2023-04-20T04:35:00.905Z,5.05
2023-04-20T04:37:28.198Z,4.80
2023-04-20T04:39:55.435Z,7.35
2023-04-20T04:42:22.317Z,5.25
2023-04-20T04:44:49.787Z,6.70
2023-04-20T04:47:21.934Z,4.70
2023-04-20T04:49:49.490Z,4.80
2023-04-20T04:52:16.292Z,4.88
2023-04-20T04:54:43.914Z,6.32
2023-04-20T04:57:14.982Z,5.70
2023-04-20T04:59:42.416Z,4.78
2023-04-20T05:02:09.268Z,4.95
2023-04-20T05:04:36.295Z,4.85
2023-04-20T05:07:03.477Z,7.47
2023-04-20T05:09:33.866Z,6.60
2023-04-20T05:12:01.069Z,4.80
2023-04-20T05:14:27.775Z,5.28
2023-04-20T05:16:54.613Z,4.50
2023-04-20T05:19:21.413Z,4.47
2023-04-20T05:21:50.894Z,4.93
2023-04-20T05:24:19.493Z,5.38
2023-04-20T05:26:46.744Z,5.60
2023-04-20T05:29:14.220Z,6.40
2023-04-20T05:31:44.754Z,4.18
2023-04-20T05:34:11.650Z,4.90
2023-04-20T05:36:39.619Z,5.57
2023-04-20T05:39:06.424Z,10.88
2023-04-20T05:41:33.261Z,5.05
2023-04-20T05:43:59.973Z,4.40
2023-04-20T05:46:27.082Z,6.00
2023-04-20T05:48:54.208Z,6.18
2023-04-20T05:51:23.758Z,4.63
2023-04-20T05:53:53.664Z,5.00
2023-04-20T05:56:20.564Z,5.03
2023-04-20T05:58:48.344Z,4.85
2023-04-20T06:01:19.797Z,5.32
2023-04-20T06:03:48.819Z,7.53
2023-04-20T06:06:16.786Z,6.85
2023-04-20T06:08:44.099Z,8.15
2023-04-20T06:11:10.919Z,5.22
2023-04-20T06:13:37.659Z,5.72
2023-04-20T06:16:09.395Z,5.00
2023-04-20T06:18:37.127Z,5.85
2023-04-20T06:21:04.486Z,6.78
2023-04-20T06:23:31.294Z,5.22
2023-04-20T06:25:58.018Z,8.20
2023-04-20T06:28:24.773Z,5.43
2023-04-20T06:30:51.714Z,6.07
2023-04-20T06:33:18.878Z,6.43
2023-04-20T06:35:45.747Z,7.03
2023-04-20T06:38:12.553Z,7.20
2023-04-20T06:40:39.242Z,7.18
2023-04-20T06:43:08.711Z,7.63
2023-04-20T06:45:36.795Z,5.40
2023-04-20T06:48:03.685Z,9.52
2023-04-20T06:50:30.582Z,5.57
2023-04-20T06:53:08.602Z,5.85
2023-04-20T06:55:35.356Z,6.40
2023-04-20T06:58:02.122Z,5.85
2023-04-20T07:00:28.856Z,6.28
2023-04-20T07:03:00.601Z,6.22
2023-04-20T07:05:28.825Z,7.72
2023-04-20T07:07:56.078Z,6.05
2023-04-20T07:10:23.804Z,6.65
2023-04-20T07:12:53.870Z,7.57
2023-04-20T07:15:20.775Z,6.78
2023-04-20T07:17:48.740Z,7.07
2023-04-20T07:20:15.567Z,6.50
2023-04-20T07:22:42.420Z,6.22
2023-04-20T07:25:10.468Z,5.75
2023-04-20T07:27:42.643Z,5.93
2023-04-20T07:30:10.702Z,5.20
2023-04-20T07:32:38.794Z,5.70
2023-04-20T07:35:06.112Z,6.45
2023-04-20T07:37:37.398Z,5.65
2023-04-20T07:40:07.211Z,5.65
2023-04-20T07:42:37.645Z,5.40
2023-04-20T07:45:07.693Z,5.78
2023-04-20T07:47:35.451Z,5.22
2023-04-20T07:50:03.138Z,4.97
2023-04-20T07:52:29.889Z,5.15
2023-04-20T07:54:59.850Z,5.38
2023-04-20T07:57:26.851Z,4.80
2023-04-20T07:59:53.642Z,4.93
2023-04-20T08:02:20.916Z,4.93
2023-04-20T08:04:49.929Z,4.75
2023-04-20T08:07:17.673Z,5.72
2023-04-20T08:09:44.537Z,4.13
2023-04-20T08:12:11.311Z,6.57
2023-04-20T08:14:38.294Z,4.63
2023-04-20T08:17:05.165Z,4.55
2023-04-20T08:19:31.910Z,3.95
2023-04-20T08:21:59.797Z,3.92
2023-04-20T08:24:28.331Z,4.32
2023-04-20T08:26:55.125Z,5.15
2023-04-20T08:29:22.001Z,4.10
2023-04-20T08:31:50.696Z,3.63
2023-04-20T08:34:19.553Z,4.35
2023-04-20T08:36:49.079Z,5.80
2023-04-20T08:39:20.771Z,4.45
2023-04-20T08:41:48.198Z,5.40
2023-04-20T08:44:25.264Z,4.97
2023-04-20T08:46:56.226Z,5.50
2023-04-20T08:49:23.523Z,4.80
2023-04-20T08:51:51.513Z,4.75
2023-04-20T08:54:18.398Z,5.00
2023-04-20T08:56:47.690Z,5.38
2023-04-20T08:59:15.629Z,5.30
2023-04-20T09:01:43.736Z,6.43
2023-04-20T09:04:21.800Z,5.43
2023-04-20T09:06:51.326Z,4.95
2023-04-20T09:09:23.438Z,5.18
2023-04-20T09:12:08.911Z,5.00
2023-04-20T09:14:46.219Z,8.68
2023-04-20T09:17:15.085Z,5.03
2023-04-20T09:19:45.292Z,4.97
2023-04-20T09:22:12.514Z,4.80
2023-04-20T09:24:41.231Z,4.93
2023-04-20T09:27:18.700Z,4.70
2023-04-20T09:29:57.573Z,5.30
2023-04-20T09:32:25.474Z,4.85
2023-04-20T09:34:52.291Z,6.45
2023-04-20T09:37:19.127Z,5.60
2023-04-20T09:39:46.773Z,4.70
2023-04-20T09:42:15.077Z,5.35
2023-04-20T09:44:43.188Z,5.03
2023-04-20T09:47:21.004Z,5.10
2023-04-20T09:49:48.217Z,5.35
2023-04-20T09:52:24.375Z,7.22
2023-04-20T09:54:52.014Z,6.10
2023-04-20T09:57:23.217Z,5.95
2023-04-20T09:59:53.369Z,11.73
2023-04-20T10:02:22.479Z,5.45
2023-04-20T10:05:19.031Z,5.05
2023-04-20T10:07:46.128Z,5.23
2023-04-20T10:10:21.397Z,5.90
2023-04-20T10:12:51.931Z,5.00
2023-04-20T10:15:24.606Z,5.32
2023-04-20T10:17:54.003Z,4.80
2023-04-20T10:20:27.998Z,6.97
2023-04-20T10:23:10.428Z,5.82
2023-04-20T10:25:37.915Z,6.57
2023-04-20T10:28:10.468Z,5.50
2023-04-20T10:30:54.850Z,4.82
2023-04-20T10:33:22.841Z,7.93
2023-04-20T10:35:55.282Z,4.75
2023-04-20T10:38:35.418Z,5.00
2023-04-20T10:41:10.501Z,4.60
2023-04-20T10:43:44.040Z,6.15
2023-04-20T10:46:23.852Z,4.85
2023-04-20T10:49:03.516Z,7.75
2023-04-20T10:51:30.676Z,6.32
2023-04-20T10:54:09.529Z,5.28
2023-04-20T10:56:51.940Z,6.72
2023-04-20T10:59:26.932Z,4.43
2023-04-20T11:01:55.406Z,4.40
2023-04-20T11:04:37.001Z,4.10
2023-04-20T11:07:12.697Z,5.57
2023-04-20T11:09:39.894Z,4.60
2023-04-20T11:12:09.528Z,6.28
2023-04-20T11:14:56.319Z,5.03
2023-04-20T11:20:23.674Z,4.57
2023-04-20T11:23:03.832Z,5.05
2023-04-20T11:25:30.995Z,5.22
2023-04-20T11:28:09.291Z,4.60
2023-04-20T11:30:48.396Z,5.38
2023-04-20T11:33:16.080Z,4.10
2023-04-20T11:35:43.849Z,3.83
2023-04-20T11:38:10.669Z,4.18
2023-04-20T11:40:37.428Z,4.07
2023-04-20T11:43:04.738Z,4.07
2023-04-20T11:45:36.756Z,4.22
2023-04-20T11:48:05.089Z,3.95
2023-04-20T11:50:35.030Z,5.03
2023-04-20T11:53:05.768Z,5.38
2023-04-20T11:55:32.699Z,4.25
2023-04-20T11:58:00.699Z,4.53
2023-04-20T12:00:30.709Z,4.25
2023-04-20T12:02:58.073Z,3.65
2023-04-20T12:05:24.940Z,3.97
2023-04-20T12:07:52.123Z,4.30
2023-04-20T12:10:18.955Z,4.63
2023-04-20T12:12:46.536Z,4.35
2023-04-20T12:15:16.888Z,4.10
2023-04-20T12:17:43.881Z,4.63
2023-04-20T12:20:12.188Z,4.30
2023-04-20T12:22:39.007Z,3.80
2023-04-20T12:25:11.326Z,3.72
2023-04-20T12:27:38.233Z,3.90
2023-04-20T12:30:05.669Z,3.55
2023-04-20T12:32:32.516Z,4.53
2023-04-20T12:34:59.370Z,4.30
2023-04-20T12:37:27.149Z,3.95
2023-04-20T12:39:54.035Z,4.40
2023-04-20T12:42:20.857Z,3.80
2023-04-20T12:44:47.704Z,5.32
2023-04-20T12:47:14.505Z,3.83
2023-04-20T12:49:41.323Z,4.07
2023-04-20T12:52:08.330Z,4.15
2023-04-20T12:54:37.172Z,4.10
2023-04-20T12:57:04.857Z,4.35
2023-04-20T12:59:31.892Z,3.90
2023-04-20T13:01:58.741Z,5.80
2023-04-20T13:04:26.437Z,3.70
2023-04-20T13:06:56.629Z,3.85
2023-04-20T13:09:26.888Z,5.57
2023-04-20T13:11:53.999Z,3.53
2023-04-20T13:14:22.056Z,3.83
2023-04-20T13:16:54.979Z,3.40
2023-04-20T13:19:48.610Z,3.97
2023-04-20T13:22:18.740Z,3.45
2023-04-20T13:24:47.817Z,3.75
2023-04-20T13:27:16.881Z,5.20
2023-04-20T13:29:43.676Z,4.20
2023-04-20T13:32:10.682Z,4.13
2023-04-20T13:34:37.488Z,4.10
2023-04-20T13:37:12.782Z,3.72
2023-04-20T13:39:52.858Z,3.67
2023-04-20T13:42:19.596Z,4.72
2023-04-20T13:44:46.373Z,3.50
2023-04-20T13:47:13.133Z,5.22
2023-04-20T13:49:39.822Z,3.70
2023-04-20T13:52:06.999Z,4.10
2023-04-20T13:54:33.731Z,3.40
2023-04-20T13:57:01.423Z,3.70
2023-04-20T13:59:28.258Z,4.97
2023-04-20T14:01:55.150Z,3.50
2023-04-20T14:04:22.261Z,7.97
2023-04-20T14:06:52.355Z,9.02
2023-04-20T14:09:19.367Z,3.17
2023-04-20T14:11:46.761Z,5.18
2023-04-20T14:14:13.709Z,3.15
2023-04-20T14:16:48.822Z,3.05
2023-04-20T14:19:15.538Z,3.78
2023-04-20T14:21:44.417Z,2.67
2023-04-20T14:24:14.228Z,5.93
2023-04-20T14:26:41.482Z,3.42
2023-04-20T14:29:08.528Z,2.70
2023-04-20T14:31:35.558Z,2.60
2023-04-20T14:34:02.619Z,4.30
2023-04-20T14:36:31.025Z,3.03
2023-04-20T14:38:57.795Z,3.55
2023-04-20T14:41:24.506Z,3.35
2023-04-20T14:43:51.314Z,3.17
2023-04-20T14:46:18.936Z,3.00
2023-04-20T14:48:46.302Z,3.28
2023-04-20T14:51:14.007Z,4.10
2023-04-20T14:53:40.790Z,3.35
2023-04-20T14:56:07.839Z,4.03
2023-04-20T14:58:36.049Z,3.20
2023-04-20T15:01:03.518Z,4.78
2023-04-20T15:03:31.052Z,4.20
2023-04-20T15:06:00.280Z,4.03
2023-04-20T15:08:27.657Z,3.70
2023-04-20T15:10:56.677Z,3.53
2023-04-20T15:13:24.212Z,3.22
2023-04-20T15:15:53.382Z,3.13
2023-04-20T15:18:21.765Z,3.63
2023-04-20T15:20:50.403Z,6.55
2023-04-20T15:23:17.214Z,3.47
2023-04-20T15:25:44.017Z,3.28
2023-04-20T15:28:11.249Z,3.28
2023-04-20T15:30:38.152Z,3.60
2023-04-20T15:33:05.616Z,4.68
2023-04-20T15:35:33.198Z,4.00
2023-04-20T15:37:59.938Z,3.65
2023-04-20T15:40:27.614Z,3.97
2023-04-20T15:42:57.890Z,5.53
2023-04-20T15:45:24.910Z,4.13
2023-04-20T15:47:52.103Z,3.72
2023-04-20T15:50:19.305Z,5.78
2023-04-20T15:58:34.581Z,4.00
2023-04-20T16:01:01.525Z,3.72
2023-04-20T16:03:28.379Z,3.75
2023-04-20T16:05:55.321Z,4.30
2023-04-20T16:08:22.060Z,4.57
2023-04-20T16:10:48.949Z,4.72
2023-04-20T16:13:15.866Z,4.85
2023-04-20T16:15:42.738Z,5.35
2023-04-20T16:18:09.640Z,7.35
2023-04-20T16:20:36.419Z,5.80
2023-04-20T16:23:03.290Z,6.25
2023-04-20T16:25:32.436Z,5.88
2023-04-20T16:27:59.460Z,6.05
2023-04-20T16:30:26.230Z,5.20
2023-04-20T16:36:40.417Z,5.60
2023-04-20T16:39:07.425Z,5.67
2023-04-20T16:41:34.191Z,9.50
2023-04-20T16:44:01.580Z,5.88
2023-04-20T16:46:28.486Z,5.85
2023-04-20T16:48:55.272Z,5.75
2023-04-20T16:51:22.146Z,5.20
2023-04-20T16:57:26.573Z,6.93
2023-04-20T16:59:53.369Z,7.88
2023-04-20T17:02:20.438Z,7.32
2023-04-20T17:07:29.104Z,5.90
2023-04-20T17:09:56.109Z,8.15
2023-04-20T17:12:23.008Z,8.32
2023-04-20T17:14:49.965Z,6.20
2023-04-20T17:17:16.828Z,7.03
2023-04-20T17:19:43.663Z,5.63
2023-04-20T17:22:10.405Z,6.10
2023-04-20T17:24:37.186Z,5.80
2023-04-20T17:27:04.281Z,6.20
2023-04-20T17:29:34.777Z,6.35
2023-04-20T17:32:02.048Z,5.78
2023-04-20T17:34:28.877Z,7.03
2023-04-20T17:36:55.755Z,7.95
2023-04-20T17:39:23.655Z,6.55
2023-04-20T17:41:50.487Z,7.15
2023-04-20T17:44:17.572Z,6.82
2023-04-20T17:46:44.663Z,7.47
2023-04-20T17:49:11.443Z,7.47
2023-04-20T17:51:38.198Z,8.40
2023-04-20T17:54:06.891Z,7.25
2023-04-20T17:56:33.684Z,8.48
2023-04-20T17:59:00.444Z,7.90
2023-04-20T18:01:28.055Z,8.48
2023-04-20T18:03:54.995Z,8.07
2023-04-20T18:06:22.009Z,8.38
2023-04-20T18:08:48.711Z,8.60
2023-04-20T18:11:15.646Z,9.00
2023-04-20T18:13:42.434Z,9.05
2023-04-20T18:16:09.282Z,10.02
2023-04-20T18:18:36.065Z,10.20
2023-04-20T18:21:04.356Z,8.93
2023-04-20T18:23:32.343Z,9.20
2023-04-20T18:25:59.174Z,10.73
2023-04-20T18:28:26.083Z,10.18
2023-04-20T18:30:53.101Z,10.45
2023-04-20T18:33:20.055Z,10.93
2023-04-20T18:35:47.083Z,11.18
2023-04-20T18:38:13.780Z,11.23
2023-04-20T18:40:40.690Z,10.05
2023-04-20T18:43:07.369Z,12.18
2023-04-20T18:45:34.110Z,11.43
2023-04-20T18:48:00.991Z,12.15
2023-04-20T18:50:27.931Z,12.10
2023-04-20T18:52:54.658Z,14.50
2023-04-20T18:55:21.404Z,14.48
2023-04-20T18:57:48.117Z,14.18
2023-04-20T19:00:15.160Z,16.90
2023-04-20T19:02:42.345Z,18.65
2023-04-20T19:05:09.363Z,16.00
2023-04-20T19:07:36.230Z,18.75
2023-04-20T19:10:03.215Z,20.38
2023-04-20T19:12:29.913Z,18.20
2023-04-20T19:14:56.782Z,17.67
2023-04-20T19:17:23.675Z,19.88
2023-04-20T19:19:51.317Z,19.15
2023-04-20T19:22:18.385Z,20.25
2023-04-20T19:24:45.173Z,18.92
2023-04-20T19:27:12.022Z,18.02
2023-04-20T19:29:38.786Z,19.27
2023-04-20T19:32:05.800Z,17.25
2023-04-20T19:34:32.565Z,20.60
2023-04-20T19:36:59.585Z,16.35
2023-04-20T19:39:26.582Z,17.42
2023-04-20T19:41:53.275Z,19.70
2023-04-20T19:44:20.111Z,18.52
2023-04-20T19:46:47.283Z,20.77
2023-04-20T19:49:13.998Z,19.13
2023-04-20T19:51:40.908Z,19.35
2023-04-20T19:54:07.816Z,19.17
2023-04-20T19:56:34.751Z,22.70
2023-04-20T19:59:01.722Z,21.13
2023-04-20T20:01:28.629Z,20.88
2023-04-20T20:03:55.719Z,21.45
2023-04-20T20:06:23.625Z,19.90
2023-04-20T20:08:50.859Z,20.55
2023-04-20T20:11:17.714Z,18.15
2023-04-20T20:13:44.546Z,18.52
2023-04-20T20:16:12.184Z,17.17
2023-04-20T20:18:39.018Z,16.67
2023-04-20T20:21:05.860Z,18.05
2023-04-20T20:23:32.735Z,17.65
2023-04-20T20:25:59.572Z,19.55
2023-04-20T20:28:26.358Z,23.90
2023-04-20T20:30:53.807Z,20.25
2023-04-20T20:33:20.756Z,18.55
2023-04-20T20:35:47.881Z,19.17
2023-04-20T20:38:14.787Z,22.05
2023-04-20T20:40:42.097Z,20.50
2023-04-20T20:43:10.113Z,20.77
2023-04-20T20:45:37.278Z,21.73
2023-04-20T20:48:04.449Z,28.42
2023-04-20T20:50:31.413Z,23.50
2023-04-20T20:52:58.221Z,25.73
2023-04-20T20:55:24.978Z,27.10
2023-04-20T20:57:52.152Z,27.23
2023-04-20T21:00:18.940Z,26.65
2023-04-20T21:02:45.867Z,27.15
2023-04-20T21:05:13.048Z,27.80
2023-04-20T21:07:40.273Z,29.42
2023-04-20T21:10:07.599Z,29.40
2023-04-20T21:12:34.324Z,29.70
2023-04-20T21:15:01.283Z,29.55
2023-04-20T21:17:28.040Z,28.73
2023-04-20T21:19:54.904Z,28.83
2023-04-20T21:22:22.549Z,28.00
2023-04-20T21:24:49.398Z,25.30
2023-04-20T21:27:16.133Z,27.58
2023-04-20T21:29:42.839Z,28.23
2023-04-20T21:32:09.930Z,28.00
2023-04-20T21:34:36.720Z,30.60
2023-04-20T21:37:05.252Z,25.92
2023-04-20T21:39:32.394Z,29.42
2023-04-20T21:41:59.804Z,26.58
2023-04-20T21:44:26.656Z,27.23
2023-04-20T21:46:53.352Z,24.10
2023-04-20T21:49:20.463Z,26.88
2023-04-20T21:51:47.356Z,27.77
2023-04-20T21:54:14.148Z,26.13
2023-04-20T21:56:40.860Z,27.33
2023-04-20T21:59:07.535Z,26.50
2023-04-20T22:01:34.377Z,25.73
2023-04-20T22:04:01.745Z,26.15
2023-04-20T22:06:28.768Z,25.27
2023-04-20T22:08:56.380Z,27.73
2023-04-20T22:11:23.175Z,25.23
2023-04-20T22:13:50.405Z,24.92
2023-04-20T22:16:17.843Z,29.83
2023-04-20T22:18:44.714Z,26.85
2023-04-20T22:21:11.538Z,27.63
2023-04-20T22:23:38.333Z,25.38
2023-04-20T22:26:05.321Z,27.92
2023-04-20T22:28:32.074Z,26.80
2023-04-20T22:30:58.836Z,28.40
2023-04-20T22:33:25.624Z,27.23
2023-04-20T22:35:52.714Z,25.52
2023-04-20T22:38:19.571Z,27.48
2023-04-20T22:40:46.397Z,26.10
2023-04-20T22:43:13.159Z,27.92
2023-04-20T22:45:39.996Z,28.50
2023-04-20T22:48:06.921Z,26.83
2023-04-20T22:50:35.033Z,27.73
2023-04-20T22:53:01.819Z,28.48
2023-04-20T22:55:28.630Z,28.35
2023-04-20T22:57:55.657Z,30.08
2023-04-20T23:00:22.389Z,29.42
2023-04-20T23:02:49.788Z,27.00
2023-04-20T23:05:20.223Z,26.38
2023-04-20T23:07:48.027Z,26.73
2023-04-20T23:10:18.810Z,25.52
2023-04-20T23:12:46.920Z,26.88
2023-04-20T23:15:13.982Z,27.08
2023-04-20T23:17:40.985Z,26.15
2023-04-20T23:20:13.637Z,28.92
2023-04-20T23:22:40.772Z,27.58
2023-04-20T23:25:09.720Z,28.75
2023-04-20T23:27:36.789Z,26.48
2023-04-20T23:30:03.845Z,27.88
2023-04-20T23:32:30.668Z,30.30
2023-04-20T23:34:57.526Z,31.45
2023-04-20T23:37:24.357Z,29.42
2023-04-20T23:39:51.427Z,30.85
2023-04-20T23:42:18.203Z,32.03
2023-04-20T23:44:45.039Z,28.95
2023-04-20T23:47:11.816Z,29.80
2023-04-20T23:49:38.548Z,33.65
2023-04-20T23:52:05.754Z,29.73
2023-04-20T23:54:33.374Z,31.77
2023-04-20T23:57:00.306Z,29.80
2023-04-20T23:59:27.076Z,33.28
